Time;durP1;ratioP1;P1;durP2;ratioP2;P2;SDS_P1;SDS_P2;PMS_P1;PMS_P2;Temp;Humidity;BMP_temperature;BMP_pressure;BME280_temperature;BME280_humidity;BME280_pressure;Samples;Min_cycle;Max_cycle;Signal;HPM_P1;HPM_P2
2023/04/22 00:00:14;;;;;;;8.05;6.28;;;;;;;12.40;55.86;99544.66;5032475;28;20049;-76
2023/04/22 00:02:39;;;;;;;9.80;6.50;;;;;;;12.27;55.77;99521.94;5032899;28;20026;-75
2023/04/22 00:05:06;;;;;;;8.38;6.05;;;;;;;12.22;56.25;99525.63;5032807;28;20032;-76
2023/04/22 00:07:31;;;;;;;7.78;6.43;;;;;;;12.15;56.42;99529.50;5032351;28;20033;-76
2023/04/22 00:09:57;;;;;;;10.23;6.93;;;;;;;12.22;56.32;99524.81;5032561;28;20495;-75
2023/04/22 00:12:22;;;;;;;7.60;6.45;;;;;;;12.29;56.41;99538.34;5032796;28;20029;-75
2023/04/22 00:14:48;;;;;;;10.52;6.32;;;;;;;12.25;56.54;99542.88;5032393;28;20500;-75
2023/04/22 00:17:13;;;;;;;10.27;6.85;;;;;;;12.01;56.64;99500.72;5032441;28;20034;-75
2023/04/22 00:19:40;;;;;;;9.73;6.97;;;;;;;12.22;56.41;99537.84;5032446;28;20053;-76
2023/04/22 00:22:06;;;;;;;9.93;5.97;;;;;;;12.13;56.62;99546.16;5032498;28;20056;-75
2023/04/22 00:24:31;;;;;;;9.13;6.22;;;;;;;12.07;56.37;99516.03;5032190;28;20489;-75
2023/04/22 00:26:57;;;;;;;10.82;6.90;;;;;;;12.08;56.42;99514.25;5032300;28;20033;-75
2023/04/22 00:29:23;;;;;;;8.23;6.03;;;;;;;12.06;56.64;99526.56;5031933;28;20036;-76
2023/04/22 00:31:49;;;;;;;10.15;6.82;;;;;;;12.17;56.68;99524.19;5032090;28;20633;-76
2023/04/22 00:34:16;;;;;;;9.30;6.13;;;;;;;11.98;56.60;99524.38;5032196;28;20104;-75
2023/04/22 00:36:41;;;;;;;8.32;6.28;;;;;;;11.95;56.74;99507.09;5032280;28;20150;-75
2023/04/22 00:39:07;;;;;;;8.93;6.38;;;;;;;12.02;56.57;99512.84;5032149;28;20041;-75
2023/04/22 00:41:33;;;;;;;10.00;6.60;;;;;;;12.05;56.58;99510.06;5031900;28;20464;-76
2023/04/22 00:43:59;;;;;;;8.02;5.68;;;;;;;11.98;56.76;99516.53;5032524;28;20056;-75
2023/04/22 00:46:25;;;;;;;10.13;6.28;;;;;;;12.05;56.58;99517.91;5032049;28;20025;-76
2023/04/22 00:48:51;;;;;;;7.50;6.07;;;;;;;12.03;56.43;99524.94;5032224;28;20107;-76
2023/04/22 00:51:17;;;;;;;10.73;6.82;;;;;;;11.99;56.68;99523.44;5031679;28;20500;-76
2023/04/22 00:53:42;;;;;;;11.27;6.88;;;;;;;11.97;56.42;99500.03;5032375;28;20104;-75
2023/04/22 00:56:07;;;;;;;7.70;6.18;;;;;;;11.94;56.58;99497.59;5032225;28;20413;-75
2023/04/22 00:58:33;;;;;;;7.95;5.80;;;;;;;12.04;56.34;99508.34;5031607;28;20029;-76
2023/04/22 01:00:58;;;;;;;6.45;5.03;;;;;;;12.09;56.78;99526.38;5032122;28;20100;-75
2023/04/22 01:03:27;;;;;;;8.77;6.20;;;;;;;11.93;56.41;99516.78;5031837;28;20104;-76
2023/04/22 01:05:52;;;;;;;10.45;6.00;;;;;;;11.93;56.65;99503.75;5032054;28;20056;-76
2023/04/22 01:08:18;;;;;;;7.80;5.78;;;;;;;12.12;56.27;99523.59;5031725;28;20021;-75
2023/04/22 01:10:43;;;;;;;9.85;6.78;;;;;;;12.10;56.97;99520.25;5031815;28;20111;-76
2023/04/22 01:13:09;;;;;;;9.57;6.97;;;;;;;12.12;56.75;99523.59;5031718;28;20021;-76
2023/04/22 01:15:34;;;;;;;7.65;6.85;;;;;;;12.17;57.10;99545.06;5031741;28;20036;-75
2023/04/22 01:18:00;;;;;;;9.43;7.30;;;;;;;12.09;57.35;99542.03;5031675;28;20567;-76
2023/04/22 01:20:30;;;;;;;13.20;8.60;;;;;;;11.97;58.13;99531.34;5031504;28;20034;-76
2023/04/22 01:22:57;;;;;;;11.57;8.35;;;;;;;11.97;58.61;99549.63;5031683;28;20049;-75
2023/04/22 01:25:25;;;;;;;11.23;8.35;;;;;;;11.74;58.51;99527.31;5031463;28;20037;-75
2023/04/22 01:27:52;;;;;;;13.55;8.82;;;;;;;11.68;58.90;99529.44;5031531;28;20103;-76
2023/04/22 01:30:18;;;;;;;10.38;8.80;;;;;;;11.67;59.21;99549.47;5031490;28;20087;-75
2023/04/22 01:32:44;;;;;;;14.32;9.40;;;;;;;11.36;59.61;99523.28;5031678;28;20053;-75
2023/04/22 01:35:09;;;;;;;12.55;9.48;;;;;;;11.29;59.96;99527.97;5031527;28;20029;-75
2023/04/22 01:37:35;;;;;;;14.65;9.50;;;;;;;11.18;60.72;99530.28;5031200;28;20112;-76
2023/04/22 01:40:02;;;;;;;14.32;9.38;;;;;;;10.92;61.47;99514.22;5033643;28;20060;-75
2023/04/22 01:42:27;;;;;;;13.57;10.27;;;;;;;11.07;61.68;99550.84;5035043;28;20393;-76
2023/04/22 01:44:53;;;;;;;12.20;8.90;;;;;;;10.99;62.24;99559.03;5035763;28;20025;-76
2023/04/22 01:47:18;;;;;;;13.90;9.68;;;;;;;10.90;62.67;99552.50;5035192;28;20029;-76
2023/04/22 01:49:43;;;;;;;12.30;9.25;;;;;;;10.72;62.91;99543.84;5035209;28;20461;-76
2023/04/22 01:52:09;;;;;;;16.38;10.35;;;;;;;10.65;62.82;99541.63;5035179;28;20031;-75
2023/04/22 01:54:34;;;;;;;18.48;13.55;;;;;;;10.46;63.11;99532.09;5034927;28;20104;-75
2023/04/22 01:57:07;;;;;;;20.55;14.85;;;;;;;10.50;64.17;99553.63;5034990;28;20064;-75
2023/04/22 01:59:32;;;;;;;21.98;16.55;;;;;;;10.39;64.45;99548.91;5034958;28;20473;-76
2023/04/22 02:01:58;;;;;;;25.48;15.55;;;;;;;10.20;64.86;99532.47;5035420;28;20029;-76
2023/04/22 02:04:23;;;;;;;18.23;14.43;;;;;;;10.20;65.60;99554.13;5034821;28;20056;-75
2023/04/22 02:06:48;;;;;;;19.88;13.95;;;;;;;9.98;65.72;99516.97;5034887;28;20036;-76
2023/04/22 02:09:14;;;;;;;18.92;14.20;;;;;;;10.00;65.89;99542.03;5034941;28;20075;-76
2023/04/22 02:11:39;;;;;;;18.00;13.35;;;;;;;9.94;66.41;99536.25;5034479;28;20076;-76
2023/04/22 02:14:05;;;;;;;19.63;14.57;;;;;;;9.77;67.00;99526.59;5035001;28;20032;-76
2023/04/22 02:16:30;;;;;;;16.05;12.85;;;;;;;9.60;67.56;99510.91;5034819;28;20037;-75
2023/04/22 02:18:55;;;;;;;19.30;13.65;;;;;;;9.66;67.95;99532.31;5035141;28;20029;-75
2023/04/22 02:21:21;;;;;;;20.60;14.52;;;;;;;9.61;68.18;99536.03;5034559;28;20124;-75
2023/04/22 02:23:46;;;;;;;18.95;14.15;;;;;;;9.23;68.52;99487.41;5034664;28;20053;-75
2023/04/22 02:26:11;;;;;;;20.55;14.57;;;;;;;9.28;68.89;99507.16;5034696;28;20025;-75
2023/04/22 02:28:37;;;;;;;19.55;13.52;;;;;;;9.29;68.88;99508.84;5034454;28;20029;-75
2023/04/22 02:31:02;;;;;;;20.50;14.25;;;;;;;9.23;69.43;99507.38;5034569;28;20029;-76
2023/04/22 02:33:27;;;;;;;19.05;14.55;;;;;;;9.29;69.89;99532.25;5034204;28;20048;-75
2023/04/22 02:35:53;;;;;;;23.02;16.20;;;;;;;9.18;70.15;99524.88;5034439;28;20018;-75
2023/04/22 02:38:18;;;;;;;19.83;14.40;;;;;;;9.14;70.35;99524.19;5034101;28;20056;-75
2023/04/22 02:40:44;;;;;;;24.00;15.65;;;;;;;9.03;70.48;99516.00;5034223;28;20029;-76
2023/04/22 02:43:09;;;;;;;24.77;16.27;;;;;;;8.90;70.53;99501.84;5034455;28;20084;-76
2023/04/22 02:45:34;;;;;;;26.40;17.75;;;;;;;8.87;70.72;99504.56;5034124;28;20491;-76
2023/04/22 02:48:00;;;;;;;26.98;18.23;;;;;;;8.99;70.40;99524.84;5034146;28;20110;-76
2023/04/22 02:50:25;;;;;;;24.90;18.08;;;;;;;8.80;70.54;99487.53;5033059;28;20117;-76
2023/04/22 02:52:50;;;;;;;26.90;17.90;;;;;;;8.85;70.96;99496.84;5033792;28;20104;-76
2023/04/22 02:55:16;;;;;;;24.02;16.48;;;;;;;9.06;70.75;99520.22;5033900;28;20075;-75
2023/04/22 02:57:41;;;;;;;22.52;16.88;;;;;;;8.95;70.80;99499.91;5034237;28;20087;-75
2023/04/22 03:00:07;;;;;;;27.55;17.38;;;;;;;9.08;70.51;99513.22;5034033;28;20032;-75
2023/04/22 03:02:32;;;;;;;26.17;17.80;;;;;;;9.05;70.60;99505.53;5033772;28;20038;-76
2023/04/22 03:04:59;;;;;;;22.95;17.52;;;;;;;8.87;70.62;99489.81;5033909;28;20390;-76
2023/04/22 03:07:25;;;;;;;23.85;17.35;;;;;;;8.79;71.02;99491.91;5033605;28;20056;-75
2023/04/22 03:09:50;;;;;;;25.40;18.92;;;;;;;8.85;71.21;99520.22;5033636;28;20485;-75
2023/04/22 03:12:15;;;;;;;24.38;17.70;;;;;;;8.75;71.33;99514.56;5033894;28;20440;-75
2023/04/22 03:14:41;;;;;;;26.55;18.35;;;;;;;8.74;71.48;99520.66;5033744;28;20021;-75
2023/04/22 03:17:06;;;;;;;28.40;18.17;;;;;;;8.69;72.23;99514.81;5033750;28;20057;-75
2023/04/22 03:19:31;;;;;;;25.33;17.30;;;;;;;8.52;72.84;99501.69;5033419;28;20079;-75
2023/04/22 03:21:58;;;;;;;25.63;17.48;;;;;;;8.49;72.56;99496.59;5033484;28;20029;-76
2023/04/22 03:24:23;;;;;;;25.52;16.73;;;;;;;8.52;72.94;99500.84;5033196;28;20029;-75
2023/04/22 03:26:48;;;;;;;23.15;16.05;;;;;;;8.40;73.15;99489.19;5033674;28;20030;-76
2023/04/22 03:29:14;;;;;;;21.60;16.50;;;;;;;8.50;73.13;99511.25;5033383;28;20029;-75
2023/04/22 03:31:39;;;;;;;26.33;17.65;;;;;;;8.40;72.73;99476.22;5033357;28;20029;-75
2023/04/22 03:34:05;;;;;;;23.63;16.48;;;;;;;8.37;72.76;99484.13;5033460;28;20057;-75
2023/04/22 03:36:30;;;;;;;21.80;16.60;;;;;;;8.53;72.93;99503.38;5033188;28;20060;-76
2023/04/22 03:38:56;;;;;;;27.08;17.85;;;;;;;8.62;72.54;99510.78;5033103;28;20049;-75
2023/04/22 03:41:22;;;;;;;22.30;15.55;;;;;;;8.43;72.83;99486.50;5032894;28;20029;-76
2023/04/22 03:43:47;;;;;;;19.70;14.48;;;;;;;8.53;72.84;99502.53;5033259;28;20033;-75
2023/04/22 03:46:13;;;;;;;22.60;14.57;;;;;;;8.37;73.05;99481.53;5033210;28;20481;-75
2023/04/22 03:48:38;;;;;;;18.85;13.75;;;;;;;8.52;73.26;99509.47;5033042;28;20112;-75
2023/04/22 03:51:03;;;;;;;17.10;13.52;;;;;;;8.52;73.00;99493.06;5032839;28;20124;-75
2023/04/22 03:53:29;;;;;;;19.60;13.38;;;;;;;8.40;72.90;99476.22;5032712;28;20087;-75
2023/04/22 03:55:54;;;;;;;18.92;14.10;;;;;;;8.56;73.48;99503.25;5032835;28;20116;-75
2023/04/22 03:58:19;;;;;;;20.80;13.63;;;;;;;8.49;73.39;99478.44;5032964;28;20033;-76
2023/04/22 04:00:45;;;;;;;21.42;13.35;;;;;;;8.61;73.45;99503.91;5032877;28;20029;-75
2023/04/22 04:03:10;;;;;;;18.42;13.43;;;;;;;8.61;73.28;99497.88;5032432;28;20031;-76
2023/04/22 04:05:35;;;;;;;18.45;14.07;;;;;;;8.65;72.89;99502.88;5032791;28;20033;-75
2023/04/22 04:08:02;;;;;;;20.65;13.00;;;;;;;8.66;72.92;99504.56;5032908;28;20025;-75
2023/04/22 04:10:27;;;;;;;21.05;14.02;;;;;;;8.73;72.73;99499.97;5032238;28;20065;-75
2023/04/22 04:12:52;;;;;;;18.33;13.80;;;;;;;8.82;71.99;99475.34;5033043;28;20512;-76
2023/04/22 04:15:20;;;;;;;16.90;13.27;;;;;;;8.97;71.62;99472.97;5032629;28;20401;-75
2023/04/22 04:17:45;;;;;;;17.33;12.63;;;;;;;9.20;70.99;99476.31;5032352;28;20026;-75
2023/04/22 04:20:11;;;;;;;19.13;13.15;;;;;;;9.44;69.55;99485.63;5032436;28;20040;-75
2023/04/22 04:22:37;;;;;;;17.90;13.10;;;;;;;9.55;70.04;99486.88;5032223;28;20021;-76
2023/04/22 04:25:03;;;;;;;17.45;12.55;;;;;;;9.44;70.13;99445.78;5032318;28;20108;-75
2023/04/22 04:27:28;;;;;;;17.90;13.75;;;;;;;9.64;69.42;99465.66;5031107;28;20108;-75
2023/04/22 04:29:55;;;;;;;17.95;12.43;;;;;;;9.81;69.45;99486.53;5032408;28;20061;-75
2023/04/22 04:32:22;;;;;;;17.15;13.27;;;;;;;9.85;68.78;99469.88;5032262;28;20054;-76
2023/04/22 04:34:48;;;;;;;20.02;14.13;;;;;;;10.03;68.74;99477.72;5032063;28;20032;-75
2023/04/22 04:37:13;;;;;;;21.60;13.23;;;;;;;10.11;68.73;99462.59;5032085;28;20022;-75
2023/04/22 04:39:38;;;;;;;18.23;13.60;;;;;;;10.20;69.11;99459.59;5031862;28;20025;-75
2023/04/22 04:42:04;;;;;;;18.98;13.50;;;;;;;10.48;68.98;99479.94;5032350;28;20047;-76
2023/04/22 04:44:32;;;;;;;18.75;13.07;;;;;;;10.56;69.19;99456.97;5031951;28;20453;-76
2023/04/22 04:46:58;;;;;;;16.00;11.85;;;;;;;10.83;68.59;99462.56;5032366;28;20112;-75
2023/04/22 04:49:23;;;;;;;19.35;13.95;;;;;;;11.21;67.50;99468.41;5032023;28;20504;-75
2023/04/22 04:51:49;;;;;;;20.55;13.27;;;;;;;11.62;66.55;99441.06;5031656;28;20416;-76
2023/04/22 04:54:14;;;;;;;20.52;13.05;;;;;;;12.31;64.68;99458.16;5031940;28;20033;-75
2023/04/22 04:56:40;;;;;;;18.63;12.27;;;;;;;12.96;62.91;99463.94;5031867;28;20022;-76
2023/04/22 04:59:05;;;;;;;15.27;12.60;;;;;;;13.62;61.05;99467.81;5031993;28;20454;-76
2023/04/22 05:01:31;;;;;;;15.32;11.90;;;;;;;14.63;59.10;99485.78;5031764;28;20026;-76
2023/04/22 05:03:56;;;;;;;17.05;10.45;;;;;;;15.81;52.86;99463.78;5031936;28;20321;-75
2023/04/22 05:06:21;;;;;;;15.55;11.75;;;;;;;17.25;52.08;99474.19;5032145;28;20564;-75
2023/04/22 05:08:47;;;;;;;17.63;11.85;;;;;;;18.18;49.83;99485.28;5031476;28;20061;-75
2023/04/22 05:11:12;;;;;;;16.42;12.32;;;;;;;18.39;48.98;99485.31;5030343;28;20021;-75
2023/04/22 05:13:37;;;;;;;12.77;9.20;;;;;;;18.09;47.40;99480.75;5031663;28;20032;-76
2023/04/22 05:16:03;;;;;;;14.05;10.23;;;;;;;17.55;47.35;99458.63;5036045;28;20485;-76
2023/04/22 05:18:28;;;;;;;12.23;9.50;;;;;;;17.53;47.40;99481.63;5035690;28;20025;-76
2023/04/22 05:20:53;;;;;;;14.60;10.65;;;;;;;17.81;46.85;99484.72;5035837;28;20026;-76
2023/04/22 05:23:19;;;;;;;15.32;10.82;;;;;;;18.66;45.48;99479.56;5035688;28;20410;-77
2023/04/22 05:25:44;;;;;;;15.15;9.55;;;;;;;19.87;43.44;99467.50;5035598;28;20068;-76
2023/04/22 05:28:10;;;;;;;13.77;9.60;;;;;;;20.86;41.75;99488.63;5035790;28;20030;-76
2023/04/22 05:30:35;;;;;;;9.75;8.18;;;;;;;20.81;41.19;99491.69;5035374;28;20060;-77
2023/04/22 05:33:00;;;;;;;12.13;9.40;;;;;;;20.30;41.99;99489.28;5035382;28;20128;-77
2023/04/22 05:35:26;;;;;;;12.07;9.20;;;;;;;19.97;44.03;99474.59;5035585;28;20457;-77
2023/04/22 05:37:51;;;;;;;13.55;9.95;;;;;;;20.02;43.58;99483.81;5035035;28;20048;-77
2023/04/22 05:40:17;;;;;;;14.82;9.98;;;;;;;20.67;42.82;99486.81;5035606;28;20025;-77
2023/04/22 05:42:42;;;;;;;12.68;9.52;;;;;;;21.50;40.89;99473.88;5035116;28;20121;-77
2023/04/22 05:45:08;;;;;;;11.80;8.30;;;;;;;22.35;39.81;99480.66;5035449;28;20366;-77
2023/04/22 05:47:33;;;;;;;11.90;9.02;;;;;;;22.56;39.03;99469.75;5035434;28;20036;-77
2023/04/22 05:49:58;;;;;;;11.43;9.20;;;;;;;22.34;39.68;99497.59;5035449;28;20018;-77
2023/04/22 05:52:24;;;;;;;9.68;8.52;;;;;;;21.78;39.67;99486.13;5035160;28;20029;-77
2023/04/22 05:54:49;;;;;;;12.57;8.52;;;;;;;21.44;40.64;99467.31;5035099;28;20045;-77
2023/04/22 05:57:15;;;;;;;12.15;8.75;;;;;;;21.79;40.55;99466.63;5035096;28;20021;-77
2023/04/22 05:59:40;;;;;;;11.50;8.88;;;;;;;23.00;38.75;99481.25;5035009;28;20049;-77
2023/04/22 06:02:05;;;;;;;9.82;8.38;;;;;;;24.02;37.92;99471.63;5035077;28;20480;-77
2023/04/22 06:04:31;;;;;;;13.95;8.50;;;;;;;24.51;37.27;99469.94;5034887;28;20056;-77
2023/04/22 06:06:56;;;;;;;9.18;8.23;;;;;;;24.23;37.43;99476.50;5034837;28;20041;-77
2023/04/22 06:09:22;;;;;;;10.60;8.02;;;;;;;23.89;37.88;99490.72;5035055;28;20027;-77
2023/04/22 06:11:47;;;;;;;12.40;7.90;;;;;;;23.68;38.76;99487.66;5034757;28;20512;-77
2023/04/22 06:14:12;;;;;;;11.40;8.88;;;;;;;23.68;37.56;99485.81;5034884;28;20021;-77
2023/04/22 06:16:41;;;;;;;13.00;9.05;;;;;;;24.00;37.79;99492.25;5034540;28;20033;-77
2023/04/22 06:19:06;;;;;;;10.98;8.30;;;;;;;24.24;37.42;99468.38;5034725;28;20025;-77
2023/04/22 06:21:32;;;;;;;10.40;9.32;;;;;;;24.34;37.25;99486.84;5034376;28;20558;-77
2023/04/22 06:24:01;;;;;;;11.05;8.77;;;;;;;24.26;37.27;99489.50;5034600;28;20026;-77
2023/04/22 06:26:26;;;;;;;10.32;8.57;;;;;;;24.55;37.37;99476.59;5034377;28;20443;-77
2023/04/22 06:28:52;;;;;;;9.30;7.90;;;;;;;25.22;36.68;99472.94;5034251;28;20112;-77
2023/04/22 06:31:17;;;;;;;12.00;8.50;;;;;;;26.27;35.50;99463.66;5034466;28;20021;-77
2023/04/22 06:33:43;;;;;;;9.90;8.80;;;;;;;26.90;34.70;99477.72;5034042;28;20512;-77
2023/04/22 06:36:08;;;;;;;10.88;8.82;;;;;;;27.15;34.47;99483.72;5034354;28;20108;-77
2023/04/22 06:38:34;;;;;;;9.88;7.72;;;;;;;27.74;33.97;99456.16;5034210;28;20049;-77
2023/04/22 06:41:00;;;;;;;10.07;8.00;;;;;;;29.66;32.62;99483.88;5034548;28;20037;-77
2023/04/22 06:43:25;;;;;;;10.38;8.45;;;;;;;31.45;30.88;99470.75;5034458;28;20029;-77
2023/04/22 06:45:50;;;;;;;9.65;8.20;;;;;;;31.61;29.77;99466.78;5034062;28;20362;-77
2023/04/22 06:48:16;;;;;;;8.95;7.97;;;;;;;31.14;30.85;99471.38;5034222;28;20461;-77
2023/04/22 06:50:41;;;;;;;9.43;8.38;;;;;;;31.16;30.51;99474.72;5033809;28;20032;-77
2023/04/22 06:53:08;;;;;;;9.68;8.68;;;;;;;32.35;30.50;99493.16;5034324;28;20037;-78
2023/04/22 06:55:34;;;;;;;9.95;7.70;;;;;;;34.05;29.36;99479.38;5034256;28;20025;-78
2023/04/22 06:57:59;;;;;;;9.15;8.25;;;;;;;35.58;27.83;99466.91;5034126;28;20041;-78
2023/04/22 07:00:25;;;;;;;9.18;7.88;;;;;;;37.17;26.93;99486.91;5033897;28;20025;-78
2023/04/22 07:02:50;;;;;;;10.00;8.77;;;;;;;38.30;26.23;99480.94;5033761;28;20473;-78
2023/04/22 07:05:16;;;;;;;9.98;8.57;;;;;;;38.99;25.95;99485.69;5033832;28;20029;-78
2023/04/22 07:07:41;;;;;;;11.13;10.00;;;;;;;39.49;25.54;99471.56;5033541;28;20075;-78
2023/04/22 07:10:07;;;;;;;11.00;9.90;;;;;;;40.21;25.11;99477.28;5034014;28;20032;-78
2023/04/22 07:12:32;;;;;;;11.27;10.27;;;;;;;40.72;25.16;99480.06;5034011;28;20372;-78
2023/04/22 07:14:57;;;;;;;12.88;9.32;;;;;;;41.10;24.19;99465.03;5033718;28;20099;-75
2023/04/22 07:17:23;;;;;;;9.75;8.95;;;;;;;41.14;24.13;99482.50;5033728;28;20435;-75
2023/04/22 07:19:48;;;;;;;10.60;9.65;;;;;;;41.55;24.14;99482.38;5032081;28;20095;-77
2023/04/22 07:22:13;;;;;;;10.20;9.30;;;;;;;41.96;23.76;99476.75;5033760;28;20025;-77
2023/04/22 07:24:39;;;;;;;10.15;9.15;;;;;;;42.25;23.76;99466.72;5033516;28;20030;-78
2023/04/22 07:27:05;;;;;;;10.75;9.82;;;;;;;42.60;23.35;99476.59;5033600;28;20041;-77
2023/04/22 07:29:30;;;;;;;11.18;9.77;;;;;;;42.94;23.18;99484.00;5033540;28;20039;-78
2023/04/22 07:31:56;;;;;;;10.18;9.27;;;;;;;43.10;23.10;99468.22;5032916;28;20519;-76
2023/04/22 07:34:21;;;;;;;11.65;10.38;;;;;;;43.35;22.94;99480.81;5033306;28;20029;-75
2023/04/22 07:36:49;;;;;;;10.88;9.77;;;;;;;43.31;22.61;99475.09;5032372;28;20465;-75
2023/04/22 07:39:15;;;;;;;10.88;9.88;;;;;;;43.35;22.72;99469.84;5033294;28;20036;-75
2023/04/22 07:41:40;;;;;;;11.35;10.32;;;;;;;43.26;23.01;99477.91;5033047;28;20029;-75
2023/04/22 07:44:05;;;;;;;10.55;9.63;;;;;;;43.28;23.00;99470.22;5033205;28;20488;-75
2023/04/22 07:46:31;;;;;;;11.02;10.07;;;;;;;43.39;23.10;99484.59;5033116;28;20621;-75
2023/04/22 07:48:56;;;;;;;10.85;9.75;;;;;;;43.33;23.08;99478.38;5032679;28;20029;-75
2023/04/22 07:51:21;;;;;;;11.05;9.90;;;;;;;43.33;22.93;99472.91;5033165;28;20127;-75
2023/04/22 07:53:47;;;;;;;11.48;10.38;;;;;;;43.27;22.75;99473.22;5032890;28;20147;-75
2023/04/22 07:56:12;;;;;;;9.80;8.90;;;;;;;43.23;23.08;99475.72;5033172;28;20061;-75
2023/04/22 07:58:38;;;;;;;10.90;9.85;;;;;;;43.38;22.99;99480.25;5032742;28;20108;-78
2023/04/22 08:01:03;;;;;;;10.75;9.73;;;;;;;43.22;22.96;99479.59;5032758;28;20021;-78
2023/04/22 08:03:28;;;;;;;10.82;9.82;;;;;;;43.01;23.01;99472.66;5032837;28;20025;-78
2023/04/22 08:05:57;;;;;;;11.18;10.18;;;;;;;42.23;23.29;99457.19;5032461;28;20389;-78
2023/04/22 08:08:22;;;;;;;10.40;9.50;;;;;;;42.18;23.80;99455.25;5032860;28;20377;-78
2023/04/22 08:10:47;;;;;;;10.95;9.18;;;;;;;42.29;23.55;99462.31;5032495;28;20039;-75
2023/04/22 08:13:13;;;;;;;10.90;9.80;;;;;;;42.05;23.94;99467.66;5032652;28;20350;-75
2023/04/22 08:15:38;;;;;;;10.32;9.23;;;;;;;41.45;23.72;99460.56;5032442;28;20032;-75
2023/04/22 08:18:04;;;;;;;12.27;9.45;;;;;;;39.32;24.63;99468.22;5032461;28;20021;-75
2023/04/22 08:20:29;;;;;;;10.30;8.98;;;;;;;38.08;25.59;99438.31;5032322;28;20056;-75
2023/04/22 08:22:59;;;;;;;11.68;9.40;;;;;;;36.30;26.49;99460.19;5032180;28;20053;-76
2023/04/22 08:25:25;;;;;;;9.32;8.43;;;;;;;33.41;29.18;99435.63;5032460;28;20033;-77
2023/04/22 08:27:50;;;;;;;11.50;10.30;;;;;;;31.28;30.63;99454.19;5032284;28;20022;-77
2023/04/22 08:30:16;;;;;;;9.60;7.60;;;;;;;29.09;30.76;99458.97;5032432;28;20037;-77
2023/04/22 08:32:41;;;;;;;8.32;7.53;;;;;;;27.73;31.61;99458.00;5032126;28;20127;-76
2023/04/22 08:35:07;;;;;;;9.48;8.55;;;;;;;26.73;32.63;99469.03;5032320;28;20034;-77
2023/04/22 08:37:33;;;;;;;11.88;9.50;;;;;;;26.21;36.11;99450.19;5032245;28;20485;-76
2023/04/22 08:39:58;;;;;;;10.32;9.23;;;;;;;25.81;36.88;99444.91;5032004;28;20368;-77
2023/04/22 08:42:25;;;;;;;14.95;7.80;;;;;;;24.81;35.12;99457.78;5032195;28;20035;-76
2023/04/22 08:44:51;;;;;;;8.68;7.75;;;;;;;24.06;36.36;99443.72;5031896;28;20060;-76
2023/04/22 08:47:19;;;;;;;9.00;6.97;;;;;;;23.74;35.23;99458.59;5032047;28;20033;-76
2023/04/22 08:49:44;;;;;;;6.40;5.05;;;;;;;23.21;33.51;99453.47;5031087;28;20056;-76
2023/04/22 08:52:11;;;;;;;8.70;5.57;;;;;;;22.60;35.00;99453.38;5032297;28;20449;-76
2023/04/22 08:54:37;;;;;;;11.25;5.75;;;;;;;21.92;36.27;99422.03;5032018;28;20536;-76
2023/04/22 08:57:04;;;;;;;9.13;4.95;;;;;;;21.74;35.84;99434.38;5031680;28;20022;-76
2023/04/22 08:59:30;;;;;;;7.35;6.30;;;;;;;21.35;37.53;99455.78;5031975;28;20075;-76
2023/04/22 09:01:57;;;;;;;11.35;7.97;;;;;;;20.86;39.54;99446.28;5031952;28;20026;-76
2023/04/22 09:04:23;;;;;;;9.77;7.13;;;;;;;20.88;38.48;99441.66;5031756;28;20477;-76
2023/04/22 09:06:48;;;;;;;7.63;6.40;;;;;;;20.73;38.18;99451.88;5031750;28;20036;-76
2023/04/22 09:09:14;;;;;;;9.77;5.85;;;;;;;20.62;36.99;99450.19;5031960;28;20041;-76
2023/04/22 09:11:40;;;;;;;6.57;5.88;;;;;;;20.66;38.16;99456.88;5031882;28;20344;-76
2023/04/22 09:14:05;;;;;;;7.55;5.93;;;;;;;20.42;37.73;99432.63;5031873;28;20504;-76
2023/04/22 09:16:32;;;;;;;10.18;5.68;;;;;;;20.61;37.09;99469.69;5031704;28;20064;-76
2023/04/22 09:18:58;;;;;;;6.30;5.63;;;;;;;20.63;37.18;99470.38;5031399;28;20028;-76
2023/04/22 09:21:27;;;;;;;7.32;5.85;;;;;;;20.38;38.50;99420.66;5031791;28;20022;-76
2023/04/22 09:23:54;;;;;;;7.28;5.97;;;;;;;20.59;36.91;99457.56;5031595;28;20029;-76
2023/04/22 09:26:22;;;;;;;9.38;6.15;;;;;;;20.53;38.02;99458.97;5031787;28;20029;-76
2023/04/22 09:28:57;;;;;;;7.15;5.90;;;;;;;20.46;37.57;99460.47;5031433;28;20030;-76
2023/04/22 09:31:23;;;;;;;8.00;6.15;;;;;;;20.55;38.37;99464.13;5031910;28;20029;-76
2023/04/22 09:33:51;;;;;;;7.85;5.90;;;;;;;20.53;37.09;99445.75;5031196;28;20053;-76
2023/04/22 09:36:21;;;;;;;9.70;5.45;;;;;;;20.48;36.82;99434.75;5031679;28;20109;-76
2023/04/22 09:39:06;;;;;;;6.60;4.93;;;;;;;20.63;37.16;99429.84;5031194;28;20465;-76
2023/04/22 09:41:39;;;;;;;7.95;5.20;;;;;;;20.93;37.82;99440.25;5031529;28;20025;-76
2023/04/22 09:44:12;;;;;;;10.52;6.00;;;;;;;21.12;37.90;99431.44;5031555;28;20033;-76
2023/04/22 09:46:41;;;;;;;8.55;6.07;;;;;;;21.00;37.23;99418.50;5031690;28;20057;-76
2023/04/22 09:49:06;;;;;;;8.25;6.07;;;;;;;21.09;37.38;99425.59;5031169;28;20382;-76
2023/04/22 09:51:33;;;;;;;8.43;6.18;;;;;;;21.41;37.32;99423.41;5031488;28;20064;-76
2023/04/22 09:54:05;;;;;;;6.43;5.75;;;;;;;21.56;37.29;99417.63;5031207;28;20053;-76
2023/04/22 09:56:49;;;;;;;5.85;5.22;;;;;;;21.72;36.10;99448.78;5031483;28;20029;-76
2023/04/22 09:59:20;;;;;;;6.13;5.50;;;;;;;21.84;35.91;99445.78;5031493;28;20022;-76
2023/04/22 10:01:46;;;;;;;6.57;5.78;;;;;;;21.60;35.86;99416.34;5034331;28;20025;-76
2023/04/22 10:04:14;;;;;;;7.07;5.53;;;;;;;21.28;36.05;99437.91;5035279;28;20045;-76
2023/04/22 10:06:40;;;;;;;8.35;6.35;;;;;;;21.09;37.05;99415.00;5034916;28;20022;-76
2023/04/22 10:09:06;;;;;;;6.38;5.47;;;;;;;21.28;37.42;99429.97;5034883;28;20037;-76
2023/04/22 10:11:33;;;;;;;7.47;5.75;;;;;;;21.24;37.50;99428.59;5034984;28;20037;-76
2023/04/22 10:13:59;;;;;;;6.88;6.18;;;;;;;21.47;37.30;99432.59;5034962;28;20033;-76
2023/04/22 10:16:27;;;;;;;7.70;5.30;;;;;;;21.16;37.27;99416.09;5034791;28;20524;-76
2023/04/22 10:18:55;;;;;;;8.82;6.07;;;;;;;21.13;37.48;99406.63;5034515;28;20030;-76
2023/04/22 10:21:24;;;;;;;6.20;5.45;;;;;;;20.97;37.53;99424.09;5034589;28;20453;-76
2023/04/22 10:23:49;;;;;;;7.47;6.43;;;;;;;20.96;37.80;99419.78;5034591;28;20104;-76
2023/04/22 10:26:47;;;;;;;6.68;5.80;;;;;;;21.24;38.26;99431.25;5034730;28;20537;-76
2023/04/22 10:29:17;;;;;;;9.35;7.50;;;;;;;21.58;38.18;99427.09;5034582;28;20045;-77
2023/04/22 10:31:53;;;;;;;9.90;6.53;;;;;;;21.50;37.64;99420.88;5034512;28;20029;-76
2023/04/22 10:34:18;;;;;;;7.70;5.82;;;;;;;21.53;38.61;99405.50;5034648;28;20034;-76
2023/04/22 10:36:56;;;;;;;7.20;6.30;;;;;;;21.86;38.28;99416.47;5034467;28;20523;-76
2023/04/22 10:39:22;;;;;;;8.93;6.63;;;;;;;21.84;37.96;99403.38;5034278;28;20032;-76
2023/04/22 10:42:08;;;;;;;7.65;6.45;;;;;;;22.06;38.12;99420.66;5034253;28;20064;-76
2023/04/22 10:44:51;;;;;;;7.82;6.78;;;;;;;21.96;37.88;99413.78;5034442;28;20485;-76
2023/04/22 10:47:24;;;;;;;9.80;5.75;;;;;;;21.79;36.97;99404.81;5034343;28;20041;-76
2023/04/22 10:49:50;;;;;;;8.45;6.28;;;;;;;21.78;37.19;99409.25;5033994;28;20030;-76
2023/04/22 10:52:28;;;;;;;9.65;6.95;;;;;;;21.39;37.55;99398.03;5034035;28;20057;-76
2023/04/22 10:54:53;;;;;;;10.93;6.72;;;;;;;21.16;38.12;99403.69;5034119;28;20053;-76
2023/04/22 10:57:21;;;;;;;8.65;6.85;;;;;;;21.02;38.45;99401.47;5034497;28;20071;-76
2023/04/22 10:59:59;;;;;;;8.50;6.95;;;;;;;21.02;38.72;99377.66;5034098;28;20026;-76
2023/04/22 11:02:24;;;;;;;8.00;6.35;;;;;;;21.27;39.55;99373.50;5034033;28;20033;-76
2023/04/22 11:04:53;;;;;;;9.48;6.88;;;;;;;21.64;38.09;99402.66;5033673;28;20038;-76
2023/04/22 11:07:25;;;;;;;6.50;5.90;;;;;;;21.80;38.22;99396.69;5034022;28;20026;-76
2023/04/22 11:10:03;;;;;;;;;;;;;;;21.84;38.92;99383.97;5033166;28;20556;-76
2023/04/22 11:12:37;;;;;;;7.28;6.43;;;;;;;21.95;38.13;99391.69;5032854;28;19909;-77
2023/04/22 11:15:07;;;;;;;7.80;6.15;;;;;;;21.57;37.92;99360.97;5033506;28;20087;-76
2023/04/22 11:17:33;;;;;;;8.98;6.65;;;;;;;21.24;37.51;99365.03;5033647;28;20025;-76
2023/04/22 11:19:59;;;;;;;10.43;7.10;;;;;;;20.87;37.98;99352.66;5033419;28;20036;-76
2023/04/22 11:22:25;;;;;;;10.50;6.60;;;;;;;20.74;38.14;99382.06;5033467;28;20053;-76